Time;durP1;ratioP1;P1;durP2;ratioP2;P2;SDS_P1;SDS_P2;PMS_P1;PMS_P2;Temp;Humidity;BMP_temperature;BMP_pressure;BME280_temperature;BME280_humidity;BME280_pressure;Samples;Min_cycle;Max_cycle;Signal;HPM_P1;HPM_P2
2021/03/29 00:04:41;;;;;;;;;;;7.50;99.90;;;;;;10371718;28;19969;-77
2021/03/29 00:09:43;;;;;;;;;;;7.40;99.90;;;;;;10371080;28;19996;-77
2021/03/29 00:14:45;;;;;;;;;;;7.20;99.90;;;;;;10371252;28;20374;-77
2021/03/29 00:19:47;;;;;;;;;;;7.10;99.90;;;;;;10370622;28;20056;-77
2021/03/29 00:24:49;;;;;;;;;;;7.10;99.90;;;;;;10366654;28;19933;-77
2021/03/29 00:29:51;;;;;;;;;;;7.10;99.90;;;;;;10350396;28;19972;-77
2021/03/29 00:34:53;;;;;;;;;;;7.00;99.90;;;;;;10369356;28;19967;-77
2021/03/29 00:39:55;;;;;;;;;;;6.90;99.90;;;;;;10370131;28;19952;-77
2021/03/29 00:44:56;;;;;;;;;;;6.80;99.90;;;;;;10370507;28;20272;-77
2021/03/29 00:49:58;;;;;;;;;;;6.80;99.90;;;;;;10352252;28;20402;-77
2021/03/29 00:55:00;;;;;;;;;;;6.80;99.90;;;;;;10369495;28;19969;-77
2021/03/29 01:00:10;;;;;;;;;;;6.80;99.90;;;;;;10352600;28;20008;-77
2021/03/29 01:05:15;;;;;;;;;;;6.60;99.90;;;;;;10369800;28;20022;-77
2021/03/29 01:10:17;;;;;;;;;;;6.40;99.90;;;;;;10351575;28;19922;-77
2021/03/29 01:15:20;;;;;;;;;;;6.30;99.90;;;;;;10368010;28;19949;-77
2021/03/29 01:20:28;;;;;;;;;;;6.30;99.90;;;;;;10368924;28;20026;-77
2021/03/29 01:25:34;;;;;;;;;;;6.30;99.90;;;;;;10360116;28;19972;-77
2021/03/29 01:30:37;;;;;;;;;;;6.30;99.90;;;;;;10365191;28;19968;-77
2021/03/29 01:35:40;;;;;;;;;;;6.40;99.90;;;;;;10368527;28;20367;-77
2021/03/29 01:40:42;;;;;;;;;;;6.50;99.90;;;;;;10367522;28;19921;-77
2021/03/29 01:45:44;;;;;;;;;;;6.60;99.90;;;;;;10368250;28;19925;-77
2021/03/29 01:50:46;;;;;;;;;;;6.50;99.90;;;;;;10360061;28;20011;-77
2021/03/29 01:55:48;;;;;;;;;;;6.40;99.90;;;;;;10367568;28;20011;-77
2021/03/29 02:00:52;;;;;;;;;;;6.20;99.90;;;;;;10367759;28;19980;-77
2021/03/29 02:05:54;;;;;;;;;;;6.20;99.90;;;;;;10374692;28;19921;-77
2021/03/29 02:10:56;;;;;;;;;;;6.10;99.90;;;;;;10374262;28;19953;-77
2021/03/29 02:16:00;;;;;;;;;;;6.10;99.90;;;;;;10373831;28;19948;-77
2021/03/29 02:21:04;;;;;;;;;;;6.20;99.90;;;;;;10372436;28;19984;-77
2021/03/29 02:26:06;;;;;;;;;;;6.30;99.90;;;;;;10368678;28;19965;-77
2021/03/29 02:31:07;;;;;;;;;;;6.30;99.90;;;;;;10373983;28;20000;-77
2021/03/29 02:36:09;;;;;;;;;;;6.30;99.90;;;;;;10373766;28;19953;-77
2021/03/29 02:41:10;;;;;;;;;;;6.40;99.90;;;;;;10373609;28;19963;-77
2021/03/29 02:46:12;;;;;;;;;;;6.30;99.90;;;;;;10373115;28;19925;-77
2021/03/29 02:51:14;;;;;;;;;;;6.20;99.90;;;;;;10365625;28;20012;-77
2021/03/29 02:56:18;;;;;;;;;;;6.20;99.90;;;;;;10372824;28;19921;-77
2021/03/29 03:01:22;;;;;;;;;;;6.30;99.90;;;;;;10372714;28;19960;-77
2021/03/29 03:06:25;;;;;;;;;;;6.20;99.90;;;;;;10367139;28;20532;-77
2021/03/29 03:11:27;;;;;;;;;;;5.90;99.90;;;;;;10366311;28;20008;-77
2021/03/29 03:16:29;;;;;;;;;;;5.70;99.90;;;;;;10365710;28;19925;-77
2021/03/29 03:21:32;;;;;;;;;;;5.70;99.90;;;;;;10365334;28;20346;-77
2021/03/29 03:26:33;;;;;;;;;;;5.60;99.90;;;;;;10360594;28;19921;-77
2021/03/29 03:31:34;;;;;;;;;;;5.40;99.90;;;;;;10365711;28;19968;-77
2021/03/29 03:36:36;;;;;;;;;;;5.30;99.90;;;;;;10371352;28;20012;-77
2021/03/29 03:41:39;;;;;;;;;;;5.20;99.90;;;;;;10373798;28;19971;-77
2021/03/29 03:46:41;;;;;;;;;;;5.10;99.90;;;;;;10373533;28;20615;-77
2021/03/29 03:51:44;;;;;;;;;;;5.10;99.90;;;;;;10336186;28;19971;-77
2021/03/29 03:56:46;;;;;;;;;;;5.00;99.90;;;;;;10373143;28;19926;-77
2021/03/29 04:01:59;;;;;;;;;;;4.90;99.90;;;;;;10372676;28;19976;-77
2021/03/29 04:07:01;;;;;;;;;;;4.90;99.90;;;;;;10354627;28;20473;-77
2021/03/29 04:12:07;;;;;;;;;;;4.80;99.90;;;;;;10372350;28;19956;-77
2021/03/29 04:17:09;;;;;;;;;;;4.70;99.90;;;;;;10372215;28;20244;-77
2021/03/29 04:22:10;;;;;;;;;;;4.70;99.90;;;;;;10372220;28;19948;-77
2021/03/29 04:27:11;;;;;;;;;;;4.60;99.90;;;;;;10364472;28;20379;-77
2021/03/29 04:32:13;;;;;;;;;;;4.50;99.90;;;;;;10371345;28;20383;-77
2021/03/29 04:37:14;;;;;;;;;;;4.50;99.90;;;;;;10371107;28;19958;-77
2021/03/29 04:42:15;;;;;;;;;;;4.40;99.90;;;;;;10370993;28;19929;-77
2021/03/29 04:47:17;;;;;;;;;;;4.40;99.90;;;;;;10370749;28;19925;-77
2021/03/29 04:52:18;;;;;;;;;;;4.30;99.90;;;;;;10369256;28;20974;-77
2021/03/29 04:57:19;;;;;;;;;;;4.30;99.90;;;;;;10370740;28;19921;-77
2021/03/29 05:02:21;;;;;;;;;;;4.20;99.90;;;;;;10370273;28;19965;-77
2021/03/29 05:07:22;;;;;;;;;;;4.20;99.90;;;;;;10370559;28;20020;-77
2021/03/29 05:12:24;;;;;;;;;;;4.10;99.90;;;;;;10369494;28;20398;-77
2021/03/29 05:17:25;;;;;;;;;;;4.10;99.90;;;;;;10369268;28;20382;-77
2021/03/29 05:22:26;;;;;;;;;;;4.10;99.90;;;;;;10370928;28;19968;-77
2021/03/29 05:27:28;;;;;;;;;;;4.00;99.90;;;;;;10368647;28;19922;-77
2021/03/29 05:32:29;;;;;;;;;;;4.00;99.90;;;;;;10367777;28;20361;-77
2021/03/29 05:37:31;;;;;;;;;;;4.10;99.90;;;;;;10368816;28;19921;-77
2021/03/29 05:42:32;;;;;;;;;;;4.30;99.90;;;;;;10368405;28;20416;-77
2021/03/29 05:47:34;;;;;;;;;;;4.40;99.90;;;;;;10368583;28;19929;-77
2021/03/29 05:52:35;;;;;;;;;;;4.70;99.90;;;;;;10350880;28;19992;-77
2021/03/29 05:57:54;;;;;;;;;;;4.80;99.90;;;;;;10367550;28;19925;-77
2021/03/29 06:03:15;;;;;;;;;;;4.80;99.90;;;;;;10368276;28;19968;-77
2021/03/29 06:08:17;;;;;;;;;;;4.90;99.90;;;;;;10368605;28;19921;-77
2021/03/29 06:13:27;;;;;;;;;;;4.90;99.90;;;;;;10350403;28;19925;-77
2021/03/29 06:18:28;;;;;;;;;;;5.00;99.90;;;;;;10350092;28;19968;-77
2021/03/29 06:23:30;;;;;;;;;;;5.10;99.90;;;;;;10349823;28;20009;-77
2021/03/29 06:28:31;;;;;;;;;;;5.10;99.90;;;;;;10350091;28;20411;-77
2021/03/29 06:33:44;;;;;;;;;;;5.10;99.90;;;;;;10351945;28;20004;-77
2021/03/29 06:38:45;;;;;;;;;;;5.30;99.90;;;;;;10366488;28;19960;-77
2021/03/29 06:43:46;;;;;;;;;;;5.50;99.90;;;;;;10366523;28;19926;-77
2021/03/29 06:48:48;;;;;;;;;;;5.80;99.90;;;;;;10366476;28;19925;-78
2021/03/29 06:53:54;;;;;;;;;;;6.00;99.90;;;;;;10366994;28;19960;-77
2021/03/29 06:58:57;;;;;;;;;;;6.40;99.90;;;;;;10365829;28;19932;-78
2021/03/29 07:03:59;;;;;;;;;;;7.10;99.90;;;;;;10366473;28;19925;-77
2021/03/29 07:09:09;;;;;;;;;;;7.70;99.90;;;;;;10364948;28;20334;-77
2021/03/29 07:14:11;;;;;;;;;;;8.10;99.90;;;;;;10365657;28;19922;-78
2021/03/29 07:19:13;;;;;;;;;;;8.50;99.90;;;;;;10354396;28;19921;-77
2021/03/29 07:24:14;;;;;;;;;;;8.90;99.90;;;;;;10364700;28;19964;-77
2021/03/29 07:29:16;;;;;;;;;;;9.40;99.90;;;;;;10350560;28;20326;-77
2021/03/29 07:34:18;;;;;;;;;;;9.90;99.90;;;;;;10365351;28;19964;-77
2021/03/29 07:39:22;;;;;;;;;;;10.30;99.90;;;;;;10365249;28;19925;-77
2021/03/29 07:44:23;;;;;;;;;;;10.60;99.90;;;;;;10347668;28;19929;-77
2021/03/29 07:49:41;;;;;;;;;;;10.70;99.90;;;;;;10364752;28;19967;-77
2021/03/29 07:54:49;;;;;;;;;;;10.80;99.30;;;;;;10365146;28;19921;-77
2021/03/29 07:59:52;;;;;;;;;;;10.90;97.50;;;;;;10347706;28;19971;-77
2021/03/29 08:05:01;;;;;;;;;;;11.20;95.60;;;;;;10348382;28;19929;-77
2021/03/29 08:10:03;;;;;;;;;;;11.60;92.30;;;;;;10364749;28;19956;-77
2021/03/29 08:15:05;;;;;;;;;;;11.90;88.60;;;;;;10364451;28;19922;-77
2021/03/29 08:20:08;;;;;;;;;;;12.10;85.20;;;;;;10348626;28;19922;-77
2021/03/29 08:25:28;;;;;;;;;;;12.30;78.70;;;;;;10365488;28;20344;-77
2021/03/29 08:30:38;;;;;;;;;;;12.60;75.00;;;;;;10354379;28;19929;-77
2021/03/29 08:35:40;;;;;;;;;;;12.80;70.20;;;;;;10372210;28;19929;-77
2021/03/29 08:40:42;;;;;;;;;;;12.80;68.30;;;;;;10371351;28;20445;-77
2021/03/29 08:45:44;;;;;;;;;;;12.80;67.50;;;;;;10370394;28;20023;-77
2021/03/29 08:50:47;;;;;;;;;;;13.00;65.90;;;;;;10386321;28;19976;-77
2021/03/29 08:55:51;;;;;;;;;;;13.40;65.60;;;;;;10370343;28;19983;-77
2021/03/29 09:00:52;;;;;;;;;;;13.90;62.70;;;;;;10370552;28;19956;-77
2021/03/29 09:05:53;;;;;;;;;;;14.20;61.30;;;;;;10369830;28;20330;-77
2021/03/29 09:10:59;;;;;;;;;;;14.30;59.90;;;;;;10385133;28;19921;-77
2021/03/29 09:16:04;;;;;;;;;;;14.70;58.70;;;;;;10346396;28;19951;-77
2021/03/29 09:21:06;;;;;;;;;;;14.80;57.30;;;;;;10324063;28;19964;-77
2021/03/29 09:26:07;;;;;;;;;;;14.80;57.00;;;;;;10317915;28;20013;-77
2021/03/29 09:31:10;;;;;;;;;;;14.90;56.00;;;;;;10322439;28;19957;-77
2021/03/29 09:36:12;;;;;;;;;;;15.30;54.70;;;;;;10322584;28;19961;-77
2021/03/29 09:41:24;;;;;;;;;;;15.50;53.80;;;;;;10320314;28;19976;-77
2021/03/29 09:46:26;;;;;;;;;;;15.60;52.20;;;;;;10320500;28;19961;-77
2021/03/29 09:51:28;;;;;;;;;;;15.60;51.10;;;;;;10323434;28;19961;-77
2021/03/29 09:56:30;;;;;;;;;;;15.90;49.90;;;;;;10326276;28;19953;-77
2021/03/29 10:01:31;;;;;;;;;;;16.30;49.40;;;;;;10308715;28;19976;-77
2021/03/29 10:06:34;;;;;;;;;;;16.70;47.70;;;;;;10325080;28;20354;-77
2021/03/29 10:11:43;;;;;;;;;;;16.70;46.80;;;;;;10308643;28;20029;-77
2021/03/29 10:16:44;;;;;;;;;;;16.70;45.80;;;;;;10313434;28;668581;-77
2021/03/29 10:22:03;;;;;;;;;;;16.80;44.60;;;;;;10366882;28;20005;-77
2021/03/29 10:27:07;;;;;;;;;;;16.80;45.00;;;;;;10349772;28;20339;-77
2021/03/29 10:32:08;;;;;;;;;;;16.80;43.30;;;;;;10367413;28;19952;-78
2021/03/29 10:37:23;;;;;;;;;;;17.20;43.90;;;;;;10366366;28;19968;-77
2021/03/29 10:42:26;;;;;;;;;;;17.20;42.20;;;;;;10366386;28;19921;-77
2021/03/29 10:47:27;;;;;;;;;;;17.20;41.80;;;;;;10366825;28;19983;-77
2021/03/29 10:52:28;;;;;;;;;;;17.40;41.30;;;;;;10366383;28;19922;-77
2021/03/29 10:57:30;;;;;;;;;;;17.40;40.90;;;;;;10366754;28;19991;-78
2021/03/29 11:02:31;;;;;;;;;;;17.10;40.70;;;;;;10365428;28;20344;-77
2021/03/29 11:07:33;;;;;;;;;;;16.90;39.90;;;;;;10364492;28;19929;-78
2021/03/29 11:12:34;;;;;;;;;;;17.10;40.50;;;;;;10364000;28;19929;-78
2021/03/29 11:17:37;;;;;;;;;;;17.20;39.80;;;;;;10363680;28;20438;-77
2021/03/29 11:22:39;;;;;;;;;;;17.30;39.80;;;;;;10364137;28;19929;-77
2021/03/29 11:27:40;;;;;;;;;;;17.40;39.80;;;;;;10365113;28;20051;-78
2021/03/29 11:32:43;;;;;;;;;;;17.60;39.50;;;;;;10364362;28;19972;-77
2021/03/29 11:37:44;;;;;;;;;;;17.60;39.30;;;;;;10365175;28;19921;-77
2021/03/29 11:42:46;;;;;;;;;;;17.60;38.30;;;;;;10349140;28;19956;-78
2021/03/29 11:47:47;;;;;;;;;;;17.70;38.40;;;;;;10354858;28;20052;-78
2021/03/29 11:52:49;;;;;;;;;;;17.90;37.70;;;;;;10364965;28;19960;-78
2021/03/29 11:57:50;;;;;;;;;;;18.00;37.60;;;;;;10371059;28;20450;-78
2021/03/29 12:13:17;;;;;;;;;;;18.00;38.00;;;;;;10371577;28;19960;-79
2021/03/29 12:23:40;;;;;;;;;;;18.40;35.80;;;;;;10312744;28;19945;-78
2021/03/29 12:28:45;;;;;;;;;;;18.70;37.00;;;;;;10331001;28;20567;-79
2021/03/29 12:33:50;;;;;;;;;;;18.70;36.20;;;;;;10330900;28;19925;-79
2021/03/29 12:39:04;;;;;;;;;;;18.90;36.60;;;;;;10325357;28;19933;-79
2021/03/29 12:44:12;;;;;;;;;;;19.10;35.60;;;;;;10330388;28;20001;-78
2021/03/29 12:49:14;;;;;;;;;;;19.10;36.40;;;;;;10329738;28;19973;-79
2021/03/29 12:54:20;;;;;;;;;;;19.10;36.00;;;;;;10330070;28;19956;-79
2021/03/29 12:59:23;;;;;;;;;;;19.20;35.80;;;;;;10329645;28;20285;-79
2021/03/29 13:04:34;;;;;;;;;;;19.10;35.30;;;;;;10329026;28;19969;-78
2021/03/29 13:09:44;;;;;;;;;;;19.30;35.30;;;;;;10329879;28;19926;-78
2021/03/29 13:15:07;;;;;;;;;;;19.50;35.70;;;;;;10329135;28;19957;-79
2021/03/29 13:20:10;;;;;;;;;;;19.60;35.20;;;;;;10368345;28;19921;-79
2021/03/29 13:25:12;;;;;;;;;;;19.80;34.90;;;;;;10369116;28;20430;-78
2021/03/29 13:30:14;;;;;;;;;;;19.90;34.80;;;;;;10369551;28;20055;-78
2021/03/29 13:35:16;;;;;;;;;;;20.10;34.60;;;;;;10368851;28;19921;-78
2021/03/29 13:40:19;;;;;;;;;;;20.10;34.50;;;;;;10368450;28;20355;-78
2021/03/29 13:45:21;;;;;;;;;;;20.30;34.30;;;;;;10368341;28;19921;-78
2021/03/29 13:50:23;;;;;;;;;;;20.50;33.90;;;;;;10368485;28;19921;-78
2021/03/29 13:55:25;;;;;;;;;;;20.40;33.60;;;;;;10367831;28;20000;-78
2021/03/29 14:00:26;;;;;;;;;;;20.50;33.70;;;;;;10367322;28;19921;-82
2021/03/29 14:05:29;;;;;;;;;;;20.60;33.80;;;;;;10366012;28;19953;-82
2021/03/29 14:10:30;;;;;;;;;;;20.50;33.30;;;;;;10367698;28;19921;-82
2021/03/29 14:15:32;;;;;;;;;;;20.40;32.80;;;;;;10382494;28;20446;-82
2021/03/29 14:20:34;;;;;;;;;;;20.60;33.00;;;;;;10366071;28;20358;-83
2021/03/29 14:25:35;;;;;;;;;;;20.60;33.00;;;;;;10357253;28;19925;-82
2021/03/29 14:30:37;;;;;;;;;;;20.50;33.10;;;;;;10338475;28;19925;-83
2021/03/29 14:45:43;;;;;;;;;;;20.50;32.70;;;;;;10366204;28;20004;-82
2021/03/29 14:50:45;;;;;;;;;;;20.40;32.40;;;;;;10365574;28;19976;-82
2021/03/29 14:55:46;;;;;;;;;;;20.60;32.70;;;;;;10365876;28;20084;-82
2021/03/29 15:00:48;;;;;;;;;;;20.70;32.60;;;;;;10365381;28;20398;-82
2021/03/29 15:11:13;;;;;;;;;;;20.80;32.10;;;;;;10355586;28;19976;-82
2021/03/29 15:16:15;;;;;;;;;;;20.80;32.40;;;;;;10357899;28;19964;-82
2021/03/29 15:21:16;;;;;;;;;;;20.80;32.60;;;;;;10324936;28;19957;-82
2021/03/29 15:26:18;;;;;;;;;;;20.70;32.10;;;;;;10325063;28;19972;-82
2021/03/29 15:31:19;;;;;;;;;;;20.70;32.70;;;;;;10312734;28;19929;-82
2021/03/29 15:36:21;;;;;;;;;;;20.50;32.60;;;;;;10333392;28;19921;-82
2021/03/29 15:41:22;;;;;;;;;;;20.60;32.30;;;;;;10316139;28;20291;-82
2021/03/29 15:46:24;;;;;;;;;;;20.60;32.50;;;;;;10333328;28;19961;-82
2021/03/29 15:51:27;;;;;;;;;;;20.60;32.70;;;;;;10332771;28;19956;-82
2021/03/29 15:56:32;;;;;;;;;;;20.50;32.30;;;;;;10332609;28;19953;-83
2021/03/29 16:01:56;;;;;;;;;;;20.40;33.00;;;;;;10331631;28;19921;-77
2021/03/29 16:06:58;;;;;;;;;;;20.20;32.40;;;;;;10331660;28;20036;-77
2021/03/29 16:12:00;;;;;;;;;;;20.10;32.60;;;;;;10331698;28;19961;-77
2021/03/29 16:17:02;;;;;;;;;;;20.10;33.30;;;;;;10342953;28;19964;-77
2021/03/29 16:22:03;;;;;;;;;;;20.10;33.20;;;;;;10354708;28;19921;-77
2021/03/29 16:27:05;;;;;;;;;;;19.80;33.30;;;;;;10341831;28;20362;-77
2021/03/29 16:32:07;;;;;;;;;;;19.60;33.50;;;;;;10371265;28;20015;-77
2021/03/29 16:37:08;;;;;;;;;;;19.50;33.10;;;;;;10353746;28;19921;-77
2021/03/29 16:42:10;;;;;;;;;;;19.40;33.30;;;;;;10369950;28;19969;-77
2021/03/29 16:47:11;;;;;;;;;;;19.20;33.70;;;;;;10370213;28;19968;-77
2021/03/29 16:52:13;;;;;;;;;;;19.10;33.90;;;;;;10370763;28;20348;-77
2021/03/29 16:57:14;;;;;;;;;;;19.10;34.30;;;;;;10352799;28;19951;-77
2021/03/29 17:02:15;;;;;;;;;;;19.00;34.20;;;;;;10362124;28;20384;-77
2021/03/29 17:07:17;;;;;;;;;;;18.90;34.90;;;;;;10361784;28;19952;-77
2021/03/29 17:12:19;;;;;;;;;;;18.70;35.10;;;;;;10370404;28;19933;-77
2021/03/29 17:17:21;;;;;;;;;;;18.50;35.40;;;;;;10352464;28;19982;-77
2021/03/29 17:22:22;;;;;;;;;;;18.30;35.80;;;;;;10329281;28;19971;-77
2021/03/29 17:27:24;;;;;;;;;;;18.10;36.60;;;;;;10307880;28;19922;-77
2021/03/29 17:32:25;;;;;;;;;;;17.90;37.60;;;;;;10328977;28;19961;-77
2021/03/29 17:37:26;;;;;;;;;;;17.60;38.20;;;;;;10328922;28;19961;-77
2021/03/29 17:42:28;;;;;;;;;;;17.40;38.60;;;;;;10328532;28;19922;-77
2021/03/29 17:47:29;;;;;;;;;;;17.10;39.30;;;;;;10327818;28;19968;-78
2021/03/29 17:52:32;;;;;;;;;;;16.90;39.80;;;;;;10326396;28;20020;-78
2021/03/29 17:57:34;;;;;;;;;;;16.50;40.30;;;;;;10327824;28;19922;-78
2021/03/29 18:02:36;;;;;;;;;;;16.20;41.10;;;;;;10310231;28;19984;-78
2021/03/29 18:07:38;;;;;;;;;;;16.00;41.70;;;;;;10306180;28;20012;-76
2021/03/29 18:12:40;;;;;;;;;;;15.70;42.30;;;;;;10328017;28;19930;-76
2021/03/29 18:17:42;;;;;;;;;;;15.40;43.70;;;;;;10344959;28;19944;-76
2021/03/29 18:22:43;;;;;;;;;;;15.20;44.70;;;;;;10363040;28;19921;-76
2021/03/29 18:27:45;;;;;;;;;;;14.90;45.30;;;;;;10362072;28;20008;-76
2021/03/29 18:32:47;;;;;;;;;;;14.70;45.90;;;;;;10364394;28;20014;-76
2021/03/29 18:37:52;;;;;;;;;;;14.50;46.80;;;;;;10347439;28;21006;-76
2021/03/29 18:42:54;;;;;;;;;;;14.30;47.90;;;;;;10359263;28;20023;-76
2021/03/29 18:47:55;;;;;;;;;;;14.20;48.00;;;;;;10362891;28;19976;-76
2021/03/29 18:52:56;;;;;;;;;;;14.10;48.40;;;;;;10362154;28;19956;-76
2021/03/29 18:57:58;;;;;;;;;;;13.90;49.00;;;;;;10348426;28;21051;-75
2021/03/29 19:03:00;;;;;;;;;;;13.70;50.00;;;;;;10371025;28;20353;-76
2021/03/29 19:08:03;;;;;;;;;;;13.50;50.40;;;;;;10361335;28;20689;-76
2021/03/29 19:13:04;;;;;;;;;;;13.30;50.90;;;;;;10362754;28;19921;-76
2021/03/29 19:18:06;;;;;;;;;;;13.10;51.40;;;;;;10342049;28;19921;-76
2021/03/29 19:23:07;;;;;;;;;;;12.90;52.00;;;;;;10324080;28;20001;-76
2021/03/29 19:28:09;;;;;;;;;;;12.80;52.90;;;;;;10294196;28;20292;-76
2021/03/29 19:33:11;;;;;;;;;;;12.70;52.90;;;;;;10319601;28;19925;-76
2021/03/29 19:38:13;;;;;;;;;;;12.60;54.30;;;;;;10324328;28;20363;-76
2021/03/29 19:43:14;;;;;;;;;;;12.50;53.40;;;;;;10323813;28;20012;-76
2021/03/29 19:48:16;;;;;;;;;;;12.40;53.50;;;;;;10324121;28;19929;-76
2021/03/29 19:53:18;;;;;;;;;;;12.20;54.50;;;;;;10323898;28;20307;-76
2021/03/29 19:58:20;;;;;;;;;;;12.10;54.70;;;;;;10323652;28;19925;-76
2021/03/29 20:03:29;;;;;;;;;;;12.10;55.20;;;;;;10323799;28;19929;-76
2021/03/29 20:08:32;;;;;;;;;;;11.90;55.90;;;;;;10324025;28;20272;-76
2021/03/29 20:13:35;;;;;;;;;;;11.70;56.50;;;;;;10323745;28;19953;-76
2021/03/29 20:18:38;;;;;;;;;;;11.50;57.10;;;;;;10355125;28;20386;-76
2021/03/29 20:23:42;;;;;;;;;;;11.30;57.90;;;;;;10372020;28;19967;-76
2021/03/29 20:28:45;;;;;;;;;;;11.20;58.10;;;;;;10371518;28;19987;-76
2021/03/29 20:33:50;;;;;;;;;;;11.10;58.80;;;;;;10370728;28;20023;-76
2021/03/29 20:38:53;;;;;;;;;;;11.00;59.50;;;;;;10371239;28;19925;-76
2021/03/29 20:49:58;;;;;;;;;;;10.80;62.00;;;;;;10370575;28;19917;-81
2021/03/29 20:55:00;;;;;;;;;;;10.70;63.20;;;;;;10352867;28;19929;-82
2021/03/29 21:00:02;;;;;;;;;;;10.70;64.60;;;;;;10370226;28;20362;-82
2021/03/29 21:05:04;;;;;;;;;;;10.50;66.00;;;;;;10370637;28;19925;-81
2021/03/29 21:10:06;;;;;;;;;;;10.40;67.60;;;;;;10370084;28;19956;-82
2021/03/29 21:15:08;;;;;;;;;;;10.30;70.10;;;;;;10369524;28;19983;-82
2021/03/29 21:20:10;;;;;;;;;;;10.10;73.00;;;;;;10369009;28;19932;-82
2021/03/29 21:25:11;;;;;;;;;;;9.90;76.20;;;;;;10365664;28;20296;-82
2021/03/29 21:30:32;;;;;;;;;;;9.80;79.80;;;;;;10368588;28;19944;-82
2021/03/29 21:35:35;;;;;;;;;;;9.90;80.00;;;;;;10368591;28;19929;-81
2021/03/29 21:40:37;;;;;;;;;;;9.90;81.80;;;;;;10351472;28;19921;-82
2021/03/29 21:45:39;;;;;;;;;;;9.80;82.90;;;;;;10368116;28;19922;-82
2021/03/29 21:50:42;;;;;;;;;;;9.70;85.40;;;;;;10368216;28;19925;-82
2021/03/29 21:55:43;;;;;;;;;;;9.50;90.00;;;;;;10368611;28;19928;-82
2021/03/29 22:00:44;;;;;;;;;;;9.40;91.50;;;;;;10367815;28;19925;-82
2021/03/29 22:05:45;;;;;;;;;;;9.30;93.70;;;;;;10366676;28;20011;-81
2021/03/29 22:10:47;;;;;;;;;;;9.30;95.10;;;;;;10367716;28;19963;-81
2021/03/29 22:15:48;;;;;;;;;;;9.30;95.70;;;;;;10367390;28;19964;-82
2021/03/29 22:20:49;;;;;;;;;;;9.10;96.60;;;;;;10367110;28;19972;-82
2021/03/29 22:25:52;;;;;;;;;;;9.00;97.50;;;;;;10355465;28;19969;-82
2021/03/29 22:31:02;;;;;;;;;;;8.80;99.30;;;;;;10342044;28;19953;-82
2021/03/29 22:36:18;;;;;;;;;;;8.60;99.90;;;;;;10361648;28;19952;-81
2021/03/29 22:46:27;;;;;;;;;;;8.50;99.90;;;;;;10365773;28;19928;-81
2021/03/29 22:51:28;;;;;;;;;;;8.30;99.90;;;;;;10366300;28;19953;-81
2021/03/29 22:56:29;;;;;;;;;;;8.20;99.90;;;;;;10366830;28;19925;-82
2021/03/29 23:01:32;;;;;;;;;;;8.20;99.90;;;;;;10366196;28;19925;-81
2021/03/29 23:06:34;;;;;;;;;;;8.10;99.90;;;;;;10365917;28;19971;-81
2021/03/29 23:11:35;;;;;;;;;;;8.00;99.90;;;;;;10365437;28;20020;-82
2021/03/29 23:16:37;;;;;;;;;;;7.70;99.90;;;;;;10365343;28;20373;-82
2021/03/29 23:21:39;;;;;;;;;;;7.70;99.90;;;;;;10363952;28;20004;-82
2021/03/29 23:26:41;;;;;;;;;;;7.70;99.90;;;;;;10360016;28;19956;-82
2021/03/29 23:31:42;;;;;;;;;;;7.70;99.90;;;;;;10363116;28;19999;-81
2021/03/29 23:36:43;;;;;;;;;;;7.50;99.90;;;;;;10360414;28;19956;-82
2021/03/29 23:41:45;;;;;;;;;;;7.40;99.90;;;;;;10363124;28;19928;-82
2021/03/29 23:46:46;;;;;;;;;;;7.40;99.90;;;;;;10363332;28;19926;-82
2021/03/29 23:51:48;;;;;;;;;;;7.30;99.90;;;;;;10365531;28;19922;-82
2021/03/29 23:56:49;;;;;;;;;;;7.10;99.90;;;;;;10371211;28;20350;-82
